sensor_id;sensor_type;location;lat;lon;timestamp;P1;durP1;ratioP1;P2;durP2;ratioP2
21360;SDS011;10839;43.206;23.550;2022-07-29T00:00:44;9.43;;;8.43;;
21360;SDS011;10839;43.206;23.550;2022-07-29T00:03:10;11.50;;;8.77;;
21360;SDS011;10839;43.206;23.550;2022-07-29T00:05:38;11.25;;;9.07;;
21360;SDS011;10839;43.206;23.550;2022-07-29T00:08:08;10.25;;;8.70;;
21360;SDS011;10839;43.206;23.550;2022-07-29T00:10:34;10.00;;;8.93;;
21360;SDS011;10839;43.206;23.550;2022-07-29T00:13:01;14.45;;;8.98;;
21360;SDS011;10839;43.206;23.550;2022-07-29T00:15:27;11.77;;;8.32;;
21360;SDS011;10839;43.206;23.550;2022-07-29T00:17:54;9.18;;;8.20;;
21360;SDS011;10839;43.206;23.550;2022-07-29T00:20:20;10.77;;;8.55;;
21360;SDS011;10839;43.206;23.550;2022-07-29T00:22:45;11.07;;;8.05;;
21360;SDS011;10839;43.206;23.550;2022-07-29T00:25:12;11.02;;;8.27;;
21360;SDS011;10839;43.206;23.550;2022-07-29T00:27:38;10.30;;;8.60;;
21360;SDS011;10839;43.206;23.550;2022-07-29T00:30:04;11.48;;;9.05;;
21360;SDS011;10839;43.206;23.550;2022-07-29T00:32:31;9.80;;;8.40;;
21360;SDS011;10839;43.206;23.550;2022-07-29T00:34:57;12.35;;;8.93;;
21360;SDS011;10839;43.206;23.550;2022-07-29T00:37:41;10.40;;;8.18;;
21360;SDS011;10839;43.206;23.550;2022-07-29T00:40:07;10.38;;;9.00;;
21360;SDS011;10839;43.206;23.550;2022-07-29T00:42:44;11.38;;;8.68;;
21360;SDS011;10839;43.206;23.550;2022-07-29T00:45:11;11.93;;;8.20;;
21360;SDS011;10839;43.206;23.550;2022-07-29T00:47:38;10.82;;;8.65;;
21360;SDS011;10839;43.206;23.550;2022-07-29T00:50:05;12.43;;;8.60;;
21360;SDS011;10839;43.206;23.550;2022-07-29T00:52:32;10.95;;;8.48;;
21360;SDS011;10839;43.206;23.550;2022-07-29T00:55:02;13.10;;;8.50;;
21360;SDS011;10839;43.206;23.550;2022-07-29T00:57:28;11.27;;;8.35;;
21360;SDS011;10839;43.206;23.550;2022-07-29T00:59:54;9.82;;;8.63;;
21360;SDS011;10839;43.206;23.550;2022-07-29T01:02:22;10.30;;;8.88;;
21360;SDS011;10839;43.206;23.550;2022-07-29T01:04:48;12.35;;;8.18;;
21360;SDS011;10839;43.206;23.550;2022-07-29T01:07:14;10.60;;;8.38;;
21360;SDS011;10839;43.206;23.550;2022-07-29T01:09:41;8.32;;;7.50;;
21360;SDS011;10839;43.206;23.550;2022-07-29T01:12:09;11.68;;;7.85;;
21360;SDS011;10839;43.206;23.550;2022-07-29T01:14:36;8.65;;;7.72;;
21360;SDS011;10839;43.206;23.550;2022-07-29T01:17:14;8.50;;;7.57;;
21360;SDS011;10839;43.206;23.550;2022-07-29T01:19:52;11.50;;;7.38;;
21360;SDS011;10839;43.206;23.550;2022-07-29T01:30:29;8.75;;;6.88;;
21360;SDS011;10839;43.206;23.550;2022-07-29T01:33:06;9.75;;;7.15;;
21360;SDS011;10839;43.206;23.550;2022-07-29T01:35:38;11.25;;;7.10;;
21360;SDS011;10839;43.206;23.550;2022-07-29T01:43:14;9.55;;;6.78;;
21360;SDS011;10839;43.206;23.550;2022-07-29T01:45:59;10.75;;;6.97;;
21360;SDS011;10839;43.206;23.550;2022-07-29T01:48:43;8.68;;;6.50;;
21360;SDS011;10839;43.206;23.550;2022-07-29T01:51:14;9.93;;;6.85;;
21360;SDS011;10839;43.206;23.550;2022-07-29T01:56:36;10.48;;;7.03;;
21360;SDS011;10839;43.206;23.550;2022-07-29T01:59:06;11.45;;;7.35;;
21360;SDS011;10839;43.206;23.550;2022-07-29T02:01:34;8.77;;;6.85;;
21360;SDS011;10839;43.206;23.550;2022-07-29T02:04:03;7.80;;;7.00;;
21360;SDS011;10839;43.206;23.550;2022-07-29T02:06:32;8.18;;;7.00;;
21360;SDS011;10839;43.206;23.550;2022-07-29T02:09:02;26.83;;;20.17;;
21360;SDS011;10839;43.206;23.550;2022-07-29T02:11:30;25.55;;;20.67;;
21360;SDS011;10839;43.206;23.550;2022-07-29T02:13:58;23.27;;;17.58;;
21360;SDS011;10839;43.206;23.550;2022-07-29T02:16:26;16.02;;;13.25;;
21360;SDS011;10839;43.206;23.550;2022-07-29T02:18:56;12.60;;;9.57;;
21360;SDS011;10839;43.206;23.550;2022-07-29T02:21:25;12.88;;;11.50;;
21360;SDS011;10839;43.206;23.550;2022-07-29T02:23:53;32.72;;;23.23;;
21360;SDS011;10839;43.206;23.550;2022-07-29T02:26:22;27.63;;;22.80;;
21360;SDS011;10839;43.206;23.550;2022-07-29T02:28:50;29.30;;;19.20;;
21360;SDS011;10839;43.206;23.550;2022-07-29T02:31:28;27.23;;;20.55;;
21360;SDS011;10839;43.206;23.550;2022-07-29T02:33:59;31.73;;;24.80;;
21360;SDS011;10839;43.206;23.550;2022-07-29T02:36:27;39.85;;;28.77;;
21360;SDS011;10839;43.206;23.550;2022-07-29T02:38:55;23.70;;;17.58;;
21360;SDS011;10839;43.206;23.550;2022-07-29T02:41:31;11.13;;;10.02;;
21360;SDS011;10839;43.206;23.550;2022-07-29T02:44:12;13.30;;;9.75;;
21360;SDS011;10839;43.206;23.550;2022-07-29T02:46:54;11.25;;;9.13;;
21360;SDS011;10839;43.206;23.550;2022-07-29T02:49:40;11.65;;;9.10;;
21360;SDS011;10839;43.206;23.550;2022-07-29T02:52:08;17.70;;;14.38;;
21360;SDS011;10839;43.206;23.550;2022-07-29T02:57:47;16.00;;;12.93;;
21360;SDS011;10839;43.206;23.550;2022-07-29T03:00:20;16.67;;;12.63;;
21360;SDS011;10839;43.206;23.550;2022-07-29T03:02:50;15.48;;;12.30;;
21360;SDS011;10839;43.206;23.550;2022-07-29T03:05:20;50.45;;;36.97;;
21360;SDS011;10839;43.206;23.550;2022-07-29T03:07:52;32.97;;;23.40;;
21360;SDS011;10839;43.206;23.550;2022-07-29T03:10:21;19.98;;;13.70;;
21360;SDS011;10839;43.206;23.550;2022-07-29T03:12:48;20.25;;;10.25;;
21360;SDS011;10839;43.206;23.550;2022-07-29T03:15:16;11.23;;;10.00;;
21360;SDS011;10839;43.206;23.550;2022-07-29T03:17:43;15.13;;;9.35;;
21360;SDS011;10839;43.206;23.550;2022-07-29T03:20:09;12.45;;;8.55;;
21360;SDS011;10839;43.206;23.550;2022-07-29T03:22:40;26.63;;;21.42;;
21360;SDS011;10839;43.206;23.550;2022-07-29T03:25:13;58.35;;;45.97;;
21360;SDS011;10839;43.206;23.550;2022-07-29T03:27:40;27.85;;;22.38;;
21360;SDS011;10839;43.206;23.550;2022-07-29T03:30:07;17.80;;;13.73;;
21360;SDS011;10839;43.206;23.550;2022-07-29T03:32:35;12.75;;;9.63;;
21360;SDS011;10839;43.206;23.550;2022-07-29T03:35:02;12.73;;;11.45;;
21360;SDS011;10839;43.206;23.550;2022-07-29T03:37:29;47.33;;;35.28;;
21360;SDS011;10839;43.206;23.550;2022-07-29T03:39:59;34.60;;;27.73;;
21360;SDS011;10839;43.206;23.550;2022-07-29T03:42:31;19.35;;;14.70;;
21360;SDS011;10839;43.206;23.550;2022-07-29T03:44:58;19.70;;;11.20;;
21360;SDS011;10839;43.206;23.550;2022-07-29T03:47:28;39.25;;;13.52;;
21360;SDS011;10839;43.206;23.550;2022-07-29T03:49:59;161.32;;;39.17;;
21360;SDS011;10839;43.206;23.550;2022-07-29T03:52:30;40.55;;;27.13;;
21360;SDS011;10839;43.206;23.550;2022-07-29T03:54:57;15.32;;;12.68;;
21360;SDS011;10839;43.206;23.550;2022-07-29T03:57:23;20.58;;;14.32;;
21360;SDS011;10839;43.206;23.550;2022-07-29T03:59:52;18.98;;;11.07;;
21360;SDS011;10839;43.206;23.550;2022-07-29T04:02:18;17.92;;;9.82;;
21360;SDS011;10839;43.206;23.550;2022-07-29T04:04:45;14.30;;;10.48;;
21360;SDS011;10839;43.206;23.550;2022-07-29T04:07:12;17.60;;;13.43;;
21360;SDS011;10839;43.206;23.550;2022-07-29T04:09:39;18.38;;;13.82;;
21360;SDS011;10839;43.206;23.550;2022-07-29T04:12:05;20.92;;;13.75;;
21360;SDS011;10839;43.206;23.550;2022-07-29T04:14:31;25.02;;;10.95;;
21360;SDS011;10839;43.206;23.550;2022-07-29T04:16:58;12.10;;;9.18;;
21360;SDS011;10839;43.206;23.550;2022-07-29T04:19:24;11.48;;;8.90;;
21360;SDS011;10839;43.206;23.550;2022-07-29T04:21:51;9.95;;;8.23;;
21360;SDS011;10839;43.206;23.550;2022-07-29T04:24:17;8.50;;;6.82;;
21360;SDS011;10839;43.206;23.550;2022-07-29T04:26:45;16.90;;;6.68;;
21360;SDS011;10839;43.206;23.550;2022-07-29T04:29:11;9.55;;;6.47;;
21360;SDS011;10839;43.206;23.550;2022-07-29T04:31:40;41.20;;;7.68;;
21360;SDS011;10839;43.206;23.550;2022-07-29T04:34:07;11.07;;;6.80;;
21360;SDS011;10839;43.206;23.550;2022-07-29T04:36:34;8.43;;;7.15;;
21360;SDS011;10839;43.206;23.550;2022-07-29T04:39:00;8.43;;;7.63;;
21360;SDS011;10839;43.206;23.550;2022-07-29T04:41:27;14.45;;;7.38;;
21360;SDS011;10839;43.206;23.550;2022-07-29T04:43:54;10.75;;;7.63;;
21360;SDS011;10839;43.206;23.550;2022-07-29T04:46:20;20.90;;;8.00;;
21360;SDS011;10839;43.206;23.550;2022-07-29T04:48:46;11.48;;;7.82;;
21360;SDS011;10839;43.206;23.550;2022-07-29T04:51:13;19.95;;;10.38;;
21360;SDS011;10839;43.206;23.550;2022-07-29T04:53:39;23.02;;;17.20;;
21360;SDS011;10839;43.206;23.550;2022-07-29T04:56:05;17.85;;;12.93;;
21360;SDS011;10839;43.206;23.550;2022-07-29T04:58:33;30.83;;;17.17;;
21360;SDS011;10839;43.206;23.550;2022-07-29T05:01:00;27.92;;;15.40;;
21360;SDS011;10839;43.206;23.550;2022-07-29T05:03:26;38.17;;;11.55;;
21360;SDS011;10839;43.206;23.550;2022-07-29T05:05:52;49.22;;;11.35;;
21360;SDS011;10839;43.206;23.550;2022-07-29T05:08:17;50.70;;;11.10;;
21360;SDS011;10839;43.206;23.550;2022-07-29T05:10:43;59.33;;;10.00;;
21360;SDS011;10839;43.206;23.550;2022-07-29T05:13:10;18.48;;;8.93;;
21360;SDS011;10839;43.206;23.550;2022-07-29T05:15:36;36.75;;;10.40;;
21360;SDS011;10839;43.206;23.550;2022-07-29T05:18:03;19.13;;;9.50;;
21360;SDS011;10839;43.206;23.550;2022-07-29T05:20:29;16.02;;;8.73;;
21360;SDS011;10839;43.206;23.550;2022-07-29T05:22:58;15.90;;;8.85;;
21360;SDS011;10839;43.206;23.550;2022-07-29T05:25:24;18.20;;;9.38;;
21360;SDS011;10839;43.206;23.550;2022-07-29T05:27:52;36.20;;;9.75;;
21360;SDS011;10839;43.206;23.550;2022-07-29T05:30:19;70.55;;;11.20;;
21360;SDS011;10839;43.206;23.550;2022-07-29T05:32:45;27.98;;;9.90;;
21360;SDS011;10839;43.206;23.550;2022-07-29T05:35:11;39.55;;;28.85;;
21360;SDS011;10839;43.206;23.550;2022-07-29T05:37:38;17.63;;;15.25;;
21360;SDS011;10839;43.206;23.550;2022-07-29T05:40:04;33.97;;;26.75;;
21360;SDS011;10839;43.206;23.550;2022-07-29T05:42:33;35.58;;;15.57;;
21360;SDS011;10839;43.206;23.550;2022-07-29T05:44:59;28.67;;;13.52;;
21360;SDS011;10839;43.206;23.550;2022-07-29T05:47:25;31.75;;;12.20;;
21360;SDS011;10839;43.206;23.550;2022-07-29T05:49:52;17.13;;;9.35;;
21360;SDS011;10839;43.206;23.550;2022-07-29T05:52:17;17.63;;;9.68;;
21360;SDS011;10839;43.206;23.550;2022-07-29T05:54:43;32.53;;;24.27;;
21360;SDS011;10839;43.206;23.550;2022-07-29T05:57:18;53.35;;;19.10;;
21360;SDS011;10839;43.206;23.550;2022-07-29T05:59:45;27.48;;;15.35;;
21360;SDS011;10839;43.206;23.550;2022-07-29T06:02:12;21.85;;;13.30;;
21360;SDS011;10839;43.206;23.550;2022-07-29T06:04:38;16.90;;;9.30;;
21360;SDS011;10839;43.206;23.550;2022-07-29T06:07:04;44.33;;;11.20;;
21360;SDS011;10839;43.206;23.550;2022-07-29T06:09:30;16.77;;;9.50;;
21360;SDS011;10839;43.206;23.550;2022-07-29T06:11:56;18.05;;;9.65;;
21360;SDS011;10839;43.206;23.550;2022-07-29T06:14:23;21.50;;;10.32;;
21360;SDS011;10839;43.206;23.550;2022-07-29T06:16:49;33.50;;;10.57;;
21360;SDS011;10839;43.206;23.550;2022-07-29T06:19:15;30.52;;;8.88;;
21360;SDS011;10839;43.206;23.550;2022-07-29T06:21:42;33.90;;;9.77;;
21360;SDS011;10839;43.206;23.550;2022-07-29T06:24:13;68.93;;;12.05;;
21360;SDS011;10839;43.206;23.550;2022-07-29T06:26:41;14.68;;;9.55;;
21360;SDS011;10839;43.206;23.550;2022-07-29T06:29:08;17.48;;;9.32;;
21360;SDS011;10839;43.206;23.550;2022-07-29T06:31:35;37.88;;;10.10;;
21360;SDS011;10839;43.206;23.550;2022-07-29T06:34:02;54.65;;;10.98;;
21360;SDS011;10839;43.206;23.550;2022-07-29T06:36:28;45.08;;;10.48;;
21360;SDS011;10839;43.206;23.550;2022-07-29T06:38:54;20.75;;;8.43;;
21360;SDS011;10839;43.206;23.550;2022-07-29T06:41:20;29.75;;;9.13;;
21360;SDS011;10839;43.206;23.550;2022-07-29T06:43:48;74.43;;;10.40;;
21360;SDS011;10839;43.206;23.550;2022-07-29T06:46:17;19.67;;;8.77;;
21360;SDS011;10839;43.206;23.550;2022-07-29T06:48:43;26.20;;;8.57;;
21360;SDS011;10839;43.206;23.550;2022-07-29T06:51:10;34.55;;;8.00;;
21360;SDS011;10839;43.206;23.550;2022-07-29T06:53:36;30.05;;;8.50;;
21360;SDS011;10839;43.206;23.550;2022-07-29T06:56:04;16.15;;;8.07;;
21360;SDS011;10839;43.206;23.550;2022-07-29T06:58:34;62.13;;;9.65;;
21360;SDS011;10839;43.206;23.550;2022-07-29T07:01:02;18.35;;;8.02;;
21360;SDS011;10839;43.206;23.550;2022-07-29T07:03:29;24.67;;;7.63;;
21360;SDS011;10839;43.206;23.550;2022-07-29T07:05:55;13.32;;;7.75;;
21360;SDS011;10839;43.206;23.550;2022-07-29T07:08:21;25.13;;;7.70;;
21360;SDS011;10839;43.206;23.550;2022-07-29T07:10:49;11.45;;;7.45;;
21360;SDS011;10839;43.206;23.550;2022-07-29T07:13:16;48.75;;;9.10;;
21360;SDS011;10839;43.206;23.550;2022-07-29T07:15:42;40.88;;;8.90;;
21360;SDS011;10839;43.206;23.550;2022-07-29T07:18:09;30.67;;;7.93;;
21360;SDS011;10839;43.206;23.550;2022-07-29T07:20:35;21.60;;;8.10;;
21360;SDS011;10839;43.206;23.550;2022-07-29T07:23:02;23.63;;;8.40;;
21360;SDS011;10839;43.206;23.550;2022-07-29T07:25:28;11.98;;;7.65;;
21360;SDS011;10839;43.206;23.550;2022-07-29T07:27:54;21.45;;;8.43;;
21360;SDS011;10839;43.206;23.550;2022-07-29T07:30:20;24.08;;;8.63;;
21360;SDS011;10839;43.206;23.550;2022-07-29T07:32:46;28.90;;;10.15;;
21360;SDS011;10839;43.206;23.550;2022-07-29T07:35:11;17.60;;;8.52;;
21360;SDS011;10839;43.206;23.550;2022-07-29T07:37:38;92.72;;;13.00;;
21360;SDS011;10839;43.206;23.550;2022-07-29T07:40:06;49.38;;;17.85;;
21360;SDS011;10839;43.206;23.550;2022-07-29T07:42:33;18.25;;;11.35;;
21360;SDS011;10839;43.206;23.550;2022-07-29T07:44:59;22.50;;;12.35;;
21360;SDS011;10839;43.206;23.550;2022-07-29T07:47:26;26.48;;;8.60;;
21360;SDS011;10839;43.206;23.550;2022-07-29T07:49:52;52.72;;;10.05;;
21360;SDS011;10839;43.206;23.550;2022-07-29T07:52:19;30.33;;;9.70;;
21360;SDS011;10839;43.206;23.550;2022-07-29T07:54:46;66.53;;;9.98;;
21360;SDS011;10839;43.206;23.550;2022-07-29T07:57:13;68.97;;;10.98;;
21360;SDS011;10839;43.206;23.550;2022-07-29T07:59:39;11.05;;;7.32;;
21360;SDS011;10839;43.206;23.550;2022-07-29T08:02:06;12.05;;;7.70;;
21360;SDS011;10839;43.206;23.550;2022-07-29T08:04:34;30.52;;;8.20;;
21360;SDS011;10839;43.206;23.550;2022-07-29T08:07:01;43.58;;;7.70;;
21360;SDS011;10839;43.206;23.550;2022-07-29T08:09:29;20.00;;;7.35;;
21360;SDS011;10839;43.206;23.550;2022-07-29T08:11:55;20.42;;;8.10;;
21360;SDS011;10839;43.206;23.550;2022-07-29T08:14:23;9.13;;;8.23;;
21360;SDS011;10839;43.206;23.550;2022-07-29T08:16:49;14.40;;;7.88;;
21360;SDS011;10839;43.206;23.550;2022-07-29T08:19:16;16.63;;;11.07;;
21360;SDS011;10839;43.206;23.550;2022-07-29T08:21:42;12.70;;;8.82;;
21360;SDS011;10839;43.206;23.550;2022-07-29T08:24:08;10.38;;;6.85;;
21360;SDS011;10839;43.206;23.550;2022-07-29T08:26:52;20.52;;;6.80;;
21360;SDS011;10839;43.206;23.550;2022-07-29T08:29:18;28.00;;;7.10;;
21360;SDS011;10839;43.206;23.550;2022-07-29T08:31:44;33.25;;;6.28;;
21360;SDS011;10839;43.206;23.550;2022-07-29T08:34:11;56.08;;;7.88;;
21360;SDS011;10839;43.206;23.550;2022-07-29T08:36:37;28.98;;;6.45;;
21360;SDS011;10839;43.206;23.550;2022-07-29T08:39:03;11.93;;;6.22;;
21360;SDS011;10839;43.206;23.550;2022-07-29T08:41:29;24.35;;;7.03;;
21360;SDS011;10839;43.206;23.550;2022-07-29T08:43:55;112.28;;;11.23;;
21360;SDS011;10839;43.206;23.550;2022-07-29T08:46:21;11.10;;;8.52;;
21360;SDS011;10839;43.206;23.550;2022-07-29T08:48:48;25.75;;;7.60;;
21360;SDS011;10839;43.206;23.550;2022-07-29T08:51:15;11.88;;;7.35;;
21360;SDS011;10839;43.206;23.550;2022-07-29T08:53:43;9.20;;;6.90;;
21360;SDS011;10839;43.206;23.550;2022-07-29T08:56:13;12.25;;;6.55;;
21360;SDS011;10839;43.206;23.550;2022-07-29T08:58:44;31.67;;;6.90;;
21360;SDS011;10839;43.206;23.550;2022-07-29T09:01:13;23.63;;;12.40;;
21360;SDS011;10839;43.206;23.550;2022-07-29T09:03:44;63.70;;;22.38;;
21360;SDS011;10839;43.206;23.550;2022-07-29T09:06:14;40.38;;;16.33;;
21360;SDS011;10839;43.206;23.550;2022-07-29T09:08:43;19.27;;;6.95;;
21360;SDS011;10839;43.206;23.550;2022-07-29T09:11:10;24.05;;;7.45;;
21360;SDS011;10839;43.206;23.550;2022-07-29T09:13:39;18.15;;;9.38;;
21360;SDS011;10839;43.206;23.550;2022-07-29T09:16:04;73.65;;;10.45;;
21360;SDS011;10839;43.206;23.550;2022-07-29T09:21:00;9.35;;;5.75;;
21360;SDS011;10839;43.206;23.550;2022-07-29T09:26:31;9.32;;;6.53;;
21360;SDS011;10839;43.206;23.550;2022-07-29T09:28:58;41.90;;;7.82;;
21360;SDS011;10839;43.206;23.550;2022-07-29T09:31:32;47.45;;;8.20;;
21360;SDS011;10839;43.206;23.550;2022-07-29T09:33:59;17.45;;;6.70;;
21360;SDS011;10839;43.206;23.550;2022-07-29T09:36:26;16.92;;;6.43;;
21360;SDS011;10839;43.206;23.550;2022-07-29T09:38:59;7.10;;;6.15;;
21360;SDS011;10839;43.206;23.550;2022-07-29T09:41:27;17.35;;;6.25;;
21360;SDS011;10839;43.206;23.550;2022-07-29T09:43:54;10.32;;;5.93;;
21360;SDS011;10839;43.206;23.550;2022-07-29T09:46:21;9.85;;;5.95;;
21360;SDS011;10839;43.206;23.550;2022-07-29T09:49:08;9.93;;;6.28;;
21360;SDS011;10839;43.206;23.550;2022-07-29T09:51:36;7.25;;;5.80;;
21360;SDS011;10839;43.206;23.550;2022-07-29T09:54:20;10.63;;;8.38;;
21360;SDS011;10839;43.206;23.550;2022-07-29T09:56:54;21.95;;;15.07;;
21360;SDS011;10839;43.206;23.550;2022-07-29T09:59:20;53.17;;;14.57;;
21360;SDS011;10839;43.206;23.550;2022-07-29T10:01:49;31.33;;;11.77;;
21360;SDS011;10839;43.206;23.550;2022-07-29T10:09:25;21.02;;;9.32;;
21360;SDS011;10839;43.206;23.550;2022-07-29T10:12:05;11.52;;;6.68;;
21360;SDS011;10839;43.206;23.550;2022-07-29T10:14:35;27.67;;;6.88;;
21360;SDS011;10839;43.206;23.550;2022-07-29T10:17:03;23.67;;;6.88;;
21360;SDS011;10839;43.206;23.550;2022-07-29T10:19:31;18.83;;;6.50;;
21360;SDS011;10839;43.206;23.550;2022-07-29T10:21:59;8.77;;;6.32;;
21360;SDS011;10839;43.206;23.550;2022-07-29T10:24:27;14.95;;;6.30;;
21360;SDS011;10839;43.206;23.550;2022-07-29T10:26:57;6.97;;;6.00;;
21360;SDS011;10839;43.206;23.550;2022-07-29T10:29:25;15.38;;;6.13;;
21360;SDS011;10839;43.206;23.550;2022-07-29T10:31:55;7.03;;;6.07;;
21360;SDS011;10839;43.206;23.550;2022-07-29T10:41:43;6.90;;;6.30;;
21360;SDS011;10839;43.206;23.550;2022-07-29T10:43:51;11.63;;;6.15;;
21360;SDS011;10839;43.206;23.550;2022-07-29T10:46:37;14.52;;;6.50;;
21360;SDS011;10839;43.206;23.550;2022-07-29T10:54:19;14.05;;;6.35;;
21360;SDS011;10839;43.206;23.550;2022-07-29T10:57:21;20.27;;;7.43;;
21360;SDS011;10839;43.206;23.550;2022-07-29T10:59:48;11.52;;;6.55;;
21360;SDS011;10839;43.206;23.550;2022-07-29T11:04:58;7.15;;;6.28;;
21360;SDS011;10839;43.206;23.550;2022-07-29T11:07:32;9.63;;;6.47;;
21360;SDS011;10839;43.206;23.550;2022-07-29T11:15:12;9.40;;;5.90;;
21360;SDS011;10839;43.206;23.550;2022-07-29T11:23:29;8.73;;;6.68;;
21360;SDS011;10839;43.206;23.550;2022-07-29T11:28:36;12.05;;;6.70;;
21360;SDS011;10839;43.206;23.550;2022-07-29T11:31:14;12.93;;;6.43;;
21360;SDS011;10839;43.206;23.550;2022-07-29T11:33:42;18.25;;;7.05;;
21360;SDS011;10839;43.206;23.550;2022-07-29T11:36:11;16.83;;;7.05;;
21360;SDS011;10839;43.206;23.550;2022-07-29T11:38:40;43.97;;;7.50;;
21360;SDS011;10839;43.206;23.550;2022-07-29T11:43:50;7.65;;;6.55;;
21360;SDS011;10839;43.206;23.550;2022-07-29T11:46:40;9.65;;;6.40;;
21360;SDS011;10839;43.206;23.550;2022-07-29T11:49:24;17.27;;;7.65;;
21360;SDS011;10839;43.206;23.550;2022-07-29T11:54:22;7.88;;;6.88;;
21360;SDS011;10839;43.206;23.550;2022-07-29T11:56:51;28.23;;;7.60;;
21360;SDS011;10839;43.206;23.550;2022-07-29T11:59:19;12.23;;;6.80;;
21360;SDS011;10839;43.206;23.550;2022-07-29T12:01:52;31.08;;;7.45;;
21360;SDS011;10839;43.206;23.550;2022-07-29T12:04:22;15.82;;;7.25;;
21360;SDS011;10839;43.206;23.550;2022-07-29T12:06:52;15.95;;;12.38;;
21360;SDS011;10839;43.206;23.550;2022-07-29T12:09:20;21.80;;;16.65;;
21360;SDS011;10839;43.206;23.550;2022-07-29T12:11:47;14.32;;;10.65;;
21360;SDS011;10839;43.206;23.550;2022-07-29T12:14:29;8.48;;;7.40;;
21360;SDS011;10839;43.206;23.550;2022-07-29T12:16:57;13.25;;;8.23;;
21360;SDS011;10839;43.206;23.550;2022-07-29T12:19:26;17.27;;;7.97;;
21360;SDS011;10839;43.206;23.550;2022-07-29T12:21:54;16.17;;;11.77;;
21360;SDS011;10839;43.206;23.550;2022-07-29T12:24:21;10.07;;;7.55;;
21360;SDS011;10839;43.206;23.550;2022-07-29T12:26:50;68.47;;;11.52;;
21360;SDS011;10839;43.206;23.550;2022-07-29T12:29:19;17.83;;;8.82;;
21360;SDS011;10839;43.206;23.550;2022-07-29T12:31:45;20.15;;;8.80;;
21360;SDS011;10839;43.206;23.550;2022-07-29T12:34:14;50.85;;;10.32;;
21360;SDS011;10839;43.206;23.550;2022-07-29T12:36:41;17.92;;;8.50;;
21360;SDS011;10839;43.206;23.550;2022-07-29T12:39:08;12.90;;;7.78;;
21360;SDS011;10839;43.206;23.550;2022-07-29T12:41:35;13.25;;;8.85;;
21360;SDS011;10839;43.206;23.550;2022-07-29T12:44:01;9.23;;;8.25;;
21360;SDS011;10839;43.206;23.550;2022-07-29T12:46:27;11.75;;;8.48;;
21360;SDS011;10839;43.206;23.550;2022-07-29T12:48:54;14.20;;;9.55;;
21360;SDS011;10839;43.206;23.550;2022-07-29T12:51:39;14.43;;;8.68;;
21360;SDS011;10839;43.206;23.550;2022-07-29T12:54:07;39.45;;;10.80;;
21360;SDS011;10839;43.206;23.550;2022-07-29T12:56:36;73.03;;;10.13;;
21360;SDS011;10839;43.206;23.550;2022-07-29T12:59:13;38.05;;;9.30;;
21360;SDS011;10839;43.206;23.550;2022-07-29T13:01:45;48.03;;;9.02;;
21360;SDS011;10839;43.206;23.550;2022-07-29T13:04:31;65.90;;;11.27;;
21360;SDS011;10839;43.206;23.550;2022-07-29T13:07:02;21.02;;;8.13;;
21360;SDS011;10839;43.206;23.550;2022-07-29T13:09:40;23.17;;;8.15;;
21360;SDS011;10839;43.206;23.550;2022-07-29T13:12:08;49.38;;;13.27;;
21360;SDS011;10839;43.206;23.550;2022-07-29T13:14:46;63.13;;;13.23;;
21360;SDS011;10839;43.206;23.550;2022-07-29T13:17:15;19.35;;;10.48;;
21360;SDS011;10839;43.206;23.550;2022-07-29T13:20:04;71.80;;;14.35;;
21360;SDS011;10839;43.206;23.550;2022-07-29T13:22:34;14.60;;;8.55;;
21360;SDS011;10839;43.206;23.550;2022-07-29T13:25:01;45.90;;;11.18;;
21360;SDS011;10839;43.206;23.550;2022-07-29T13:27:28;36.95;;;9.98;;
21360;SDS011;10839;43.206;23.550;2022-07-29T13:29:57;13.43;;;8.27;;
21360;SDS011;10839;43.206;23.550;2022-07-29T13:32:25;13.77;;;8.35;;
21360;SDS011;10839;43.206;23.550;2022-07-29T13:34:52;18.02;;;8.73;;
21360;SDS011;10839;43.206;23.550;2022-07-29T13:37:19;17.65;;;7.90;;
21360;SDS011;10839;43.206;23.550;2022-07-29T13:39:45;31.98;;;9.13;;
21360;SDS011;10839;43.206;23.550;2022-07-29T13:42:13;26.67;;;8.23;;
21360;SDS011;10839;43.206;23.550;2022-07-29T13:44:39;60.72;;;9.60;;
21360;SDS011;10839;43.206;23.550;2022-07-29T13:47:07;11.18;;;7.20;;
21360;SDS011;10839;43.206;23.550;2022-07-29T13:49:34;20.65;;;9.02;;
21360;SDS011;10839;43.206;23.550;2022-07-29T13:52:00;15.65;;;14.07;;
21360;SDS011;10839;43.206;23.550;2022-07-29T13:54:26;23.65;;;10.07;;
21360;SDS011;10839;43.206;23.550;2022-07-29T13:56:52;40.38;;;9.80;;
21360;SDS011;10839;43.206;23.550;2022-07-29T13:59:19;16.90;;;7.40;;
21360;SDS011;10839;43.206;23.550;2022-07-29T14:01:45;11.63;;;7.85;;
21360;SDS011;10839;43.206;23.550;2022-07-29T14:04:10;20.20;;;8.32;;
21360;SDS011;10839;43.206;23.550;2022-07-29T14:06:36;11.82;;;7.90;;
21360;SDS011;10839;43.206;23.550;2022-07-29T14:09:03;10.18;;;7.53;;
21360;SDS011;10839;43.206;23.550;2022-07-29T14:11:37;15.55;;;8.93;;
21360;SDS011;10839;43.206;23.550;2022-07-29T14:14:04;12.50;;;8.70;;
21360;SDS011;10839;43.206;23.550;2022-07-29T14:16:30;9.50;;;8.50;;
21360;SDS011;10839;43.206;23.550;2022-07-29T14:18:56;15.85;;;7.78;;
21360;SDS011;10839;43.206;23.550;2022-07-29T14:21:22;13.57;;;7.82;;
21360;SDS011;10839;43.206;23.550;2022-07-29T14:23:58;32.58;;;9.27;;
21360;SDS011;10839;43.206;23.550;2022-07-29T14:26:25;15.02;;;7.72;;
21360;SDS011;10839;43.206;23.550;2022-07-29T14:28:52;11.40;;;7.60;;
21360;SDS011;10839;43.206;23.550;2022-07-29T15:24:14;15.43;;;7.10;;
21360;SDS011;10839;43.206;23.550;2022-07-29T16:35:07;11.52;;;8.55;;
21360;SDS011;10839;43.206;23.550;2022-07-29T16:43:21;13.02;;;9.07;;
21360;SDS011;10839;43.206;23.550;2022-07-29T16:51:17;16.05;;;9.75;;
21360;SDS011;10839;43.206;23.550;2022-07-29T16:53:44;10.35;;;9.35;;
21360;SDS011;10839;43.206;23.550;2022-07-29T16:58:52;10.65;;;9.55;;
21360;SDS011;10839;43.206;23.550;2022-07-29T17:01:18;12.00;;;9.70;;
21360;SDS011;10839;43.206;23.550;2022-07-29T17:24:03;11.30;;;9.90;;
21360;SDS011;10839;43.206;23.550;2022-07-29T17:34:56;10.00;;;9.10;;
21360;SDS011;10839;43.206;23.550;2022-07-29T17:37:22;10.57;;;9.55;;
21360;SDS011;10839;43.206;23.550;2022-07-29T17:42:51;14.63;;;10.77;;
21360;SDS011;10839;43.206;23.550;2022-07-29T17:48:13;12.75;;;10.32;;
21360;SDS011;10839;43.206;23.550;2022-07-29T18:02:02;11.80;;;9.98;;
21360;SDS011;10839;43.206;23.550;2022-07-29T18:04:28;11.25;;;9.98;;
21360;SDS011;10839;43.206;23.550;2022-07-29T18:20:26;12.70;;;10.30;;
21360;SDS011;10839;43.206;23.550;2022-07-29T18:22:54;11.07;;;9.40;;
21360;SDS011;10839;43.206;23.550;2022-07-29T18:25:20;12.60;;;9.90;;
21360;SDS011;10839;43.206;23.550;2022-07-29T18:27:46;11.43;;;10.30;;
21360;SDS011;10839;43.206;23.550;2022-07-29T18:35:36;12.10;;;10.25;;
21360;SDS011;10839;43.206;23.550;2022-07-29T18:47:13;11.00;;;9.90;;
21360;SDS011;10839;43.206;23.550;2022-07-29T18:55:19;10.55;;;9.45;;
21360;SDS011;10839;43.206;23.550;2022-07-29T18:57:45;13.45;;;9.55;;
21360;SDS011;10839;43.206;23.550;2022-07-29T19:00:12;11.23;;;9.70;;
21360;SDS011;10839;43.206;23.550;2022-07-29T19:02:38;10.07;;;9.18;;
21360;SDS011;10839;43.206;23.550;2022-07-29T19:05:05;9.95;;;8.98;;